Terminal Aerodrome Forecast
Issued by NWS

Home | Current Version | Previous Version | Text Only | Print | Product List | Glossary On
Versions: 1 2 3 4 5 6 7 8 9 10 11 12 13 14 15 16 17 18 19
000
FTUS44 KLZK 191500 AAB
TAFLLQ
TAF AMD
KLLQ 191556Z 1916/2012 08007KT P6SM SCT015
     FM191900 07005KT P6SM BKN050
     FM200000 06003KT P6SM SCT250
      TEMPO 2009/2012 4SM BR SCT010=

USA.gov is the U.S. government's official web portal to all federal, state and local government web resources and services.